CheckWX is a tool to help pilots better visualize weather data.  It is not intended as a substitute for an official pre-flight weather briefing.

22:34:31 UTC

MPDA METAR
Enrique Malek International Airport
David, Panama
Current

35 mins ago

MPDA 202200Z 17008KT 9999 SCT018 31/25 Q1005
Observed
Jul-20 @ 22:00 UTC
Wind
  • 170° at 8 KTS
Visibility
10,000+ meters
Flight Rules
VFR
Cloud Levels
  • Scattered at 1,800' AGL
Temperature
31°C / 88°F
Dewpoint
25°C / 77°F
Heat Index
38°C / 100°F
Humidity
70%
Altimeter
29.68" Hg
Pressure
1004.92 hPa
Previous

2 hours ago

MPDA 202100Z 21010KT 9999 FEW018 31/25 Q1005
Observed
Jul-20 @ 21:00 UTC
Wind
  • 210° at 10 KTS
Visibility
10,000+ meters
Flight Rules
VFR
Cloud Levels
  • Few at 1,800' AGL
Temperature
31°C / 88°F
Dewpoint
25°C / 77°F
Heat Index
38°C / 100°F
Humidity
70%
Altimeter
29.68" Hg
Pressure
1004.92 hPa
Previous

3 hours ago

MPDA 202000Z 20010KT 9999 FEW018 31/25 Q1005
Observed
Jul-20 @ 20:00 UTC
Wind
  • 200° at 10 KTS
Visibility
10,000+ meters
Flight Rules
VFR
Cloud Levels
  • Few at 1,800' AGL
Temperature
31°C / 88°F
Dewpoint
25°C / 77°F
Heat Index
38°C / 100°F
Humidity
70%
Altimeter
29.68" Hg
Pressure
1004.92 hPa